Time;durP1;ratioP1;P1;durP2;ratioP2;P2;SDS_P1;SDS_P2;PMS_P1;PMS_P2;Temp;Humidity;BMP_temperature;BMP_pressure;BME280_temperature;BME280_humidity;BME280_pressure;Samples;Min_cycle;Max_cycle;Signal;HPM_P1;HPM_P2
2022/01/10 00:00:43;;;;;;;21.10;6.68;;;;;;;;;;5055342;28;20131;-89
2022/01/10 00:03:09;;;;;;;19.63;6.50;;;;;;;;;;5091270;28;20511;-88
2022/01/10 00:05:36;;;;;;;14.70;5.55;;;;;;;;;;5072407;28;20051;-87
2022/01/10 00:08:04;;;;;;;19.77;6.75;;;;;;;;;;5088990;28;20445;-88
2022/01/10 00:10:30;;;;;;;19.83;6.20;;;;;;;;;;5054921;28;20040;-89
2022/01/10 00:12:56;;;;;;;13.85;6.07;;;;;;;;;;5054227;28;20137;-88
2022/01/10 00:15:23;;;;;;;21.80;5.45;;;;;;;;;;5073921;28;20041;-86
2022/01/10 00:17:49;;;;;;;20.50;5.75;;;;;;;;;;5075451;28;20040;-88
2022/01/10 00:20:16;;;;;;;21.13;8.00;;;;;;;;;;5075241;28;20050;-88
2022/01/10 00:22:48;;;;;;;17.13;6.22;;;;;;;;;;5074942;28;20054;-88
2022/01/10 00:25:15;;;;;;;28.33;6.05;;;;;;;;;;5055529;28;20044;-88
2022/01/10 00:27:41;;;;;;;16.88;6.15;;;;;;;;;;5093008;28;20044;-89
2022/01/10 00:30:09;;;;;;;17.52;6.57;;;;;;;;;;5074532;28;20127;-88
2022/01/10 00:32:35;;;;;;;17.98;6.32;;;;;;;;;;5055240;28;20032;-87
2022/01/10 00:35:01;;;;;;;18.38;6.80;;;;;;;;;;5054875;28;20385;-87
2022/01/10 00:37:27;;;;;;;19.45;6.05;;;;;;;;;;5057810;28;20123;-88
2022/01/10 00:39:53;;;;;;;18.13;6.25;;;;;;;;;;5054581;28;20082;-88
2022/01/10 00:42:19;;;;;;;18.58;6.00;;;;;;;;;;5071370;28;20045;-87
2022/01/10 00:44:50;;;;;;;16.83;7.72;;;;;;;;;;5054498;28;20063;-87
2022/01/10 00:47:16;;;;;;;20.45;5.53;;;;;;;;;;5056241;28;20043;-86
2022/01/10 00:49:43;;;;;;;25.63;6.78;;;;;;;;;;5074479;28;20040;-87
2022/01/10 00:52:09;;;;;;;20.95;6.18;;;;;;;;;;5074313;28;20071;-88
2022/01/10 00:54:35;;;;;;;20.65;6.82;;;;;;;;;;5054570;28;20044;-88
2022/01/10 00:57:01;;;;;;;19.42;7.13;;;;;;;;;;5054456;28;20033;-88
2022/01/10 00:59:30;;;;;;;21.60;7.38;;;;;;;;;;5057460;28;20032;-87
2022/01/10 01:01:56;;;;;;;23.38;6.97;;;;;;;;;;5054321;28;20045;-88
2022/01/10 01:04:22;;;;;;;20.05;6.53;;;;;;;;;;5072443;28;20052;-86
2022/01/10 01:06:54;;;;;;;20.33;7.43;;;;;;;;;;5073956;28;20042;-88
2022/01/10 01:09:26;;;;;;;19.70;6.68;;;;;;;;;;5056218;28;20068;-87
2022/01/10 01:12:10;;;;;;;20.58;7.35;;;;;;;;;;5053917;28;20036;-88
2022/01/10 01:17:11;;;;;;;18.95;6.57;;;;;;;;;;5071984;28;20048;-88
2022/01/10 01:25:03;;;;;;;22.88;7.68;;;;;;;;;;5096109;28;20040;-88
2022/01/10 01:27:30;;;;;;;20.90;8.20;;;;;;;;;;5077811;28;20051;-87
2022/01/10 01:29:56;;;;;;;19.23;8.52;;;;;;;;;;5058199;28;20045;-88
2022/01/10 01:32:23;;;;;;;20.27;7.68;;;;;;;;;;5060928;28;20113;-88
2022/01/10 01:34:49;;;;;;;26.08;9.48;;;;;;;;;;5059164;28;20044;-88
2022/01/10 01:37:15;;;;;;;23.38;8.93;;;;;;;;;;5058684;28;20074;-88
2022/01/10 01:39:41;;;;;;;18.90;7.70;;;;;;;;;;5057955;28;20083;-87
2022/01/10 01:42:30;;;;;;;24.77;8.02;;;;;;;;;;5071315;28;20047;-89
2022/01/10 01:44:53;;;;;;;18.83;7.03;;;;;;;;;;5077758;28;20051;-88
2022/01/10 01:47:19;;;;;;;21.08;7.93;;;;;;;;;;5059992;28;20044;-87
2022/01/10 01:49:45;;;;;;;19.90;8.27;;;;;;;;;;5078158;28;20032;-87
2022/01/10 01:52:11;;;;;;;29.08;8.77;;;;;;;;;;5058814;28;20033;-87
2022/01/10 01:54:37;;;;;;;21.90;8.18;;;;;;;;;;5074391;28;20128;-86
2022/01/10 01:57:04;;;;;;;18.67;7.68;;;;;;;;;;5070495;28;20127;-87
2022/01/10 01:59:30;;;;;;;21.75;8.55;;;;;;;;;;5074455;28;20085;-88
2022/01/10 02:01:57;;;;;;;24.63;8.73;;;;;;;;;;5090776;28;20036;-88
2022/01/10 02:04:23;;;;;;;24.40;9.48;;;;;;;;;;5059577;28;20040;-87
2022/01/10 02:06:49;;;;;;;25.40;9.15;;;;;;;;;;5077311;28;20044;-88
2022/01/10 02:09:15;;;;;;;30.30;9.82;;;;;;;;;;5058736;28;20040;-88
2022/01/10 02:11:41;;;;;;;28.15;10.48;;;;;;;;;;5076941;28;20458;-86
2022/01/10 02:14:08;;;;;;;25.42;10.32;;;;;;;;;;5074110;28;20044;-88
2022/01/10 02:16:45;;;;;;;28.00;10.50;;;;;;;;;;5073381;28;20044;-85
2022/01/10 02:19:12;;;;;;;28.45;9.93;;;;;;;;;;5072195;28;20036;-87
2022/01/10 02:21:38;;;;;;;27.65;9.32;;;;;;;;;;5057645;28;20068;-87
2022/01/10 02:24:05;;;;;;;26.65;9.55;;;;;;;;;;5069685;28;20048;-87
2022/01/10 02:26:32;;;;;;;25.73;9.82;;;;;;;;;;5040015;28;20519;-86
2022/01/10 02:28:58;;;;;;;27.77;9.90;;;;;;;;;;5056559;28;20036;-86
2022/01/10 02:31:25;;;;;;;34.22;11.43;;;;;;;;;;5076010;28;20128;-87
2022/01/10 02:33:58;;;;;;;19.75;10.10;;;;;;;;;;5073726;28;20032;-86
2022/01/10 02:36:26;;;;;;;22.52;9.02;;;;;;;;;;5074866;28;20036;-88
2022/01/10 02:39:02;;;;;;;23.25;9.75;;;;;;;;;;5057157;28;20036;-87
2022/01/10 02:41:29;;;;;;;22.67;9.38;;;;;;;;;;5059829;28;20058;-87
2022/01/10 02:43:55;;;;;;;27.83;10.23;;;;;;;;;;5076274;28;20052;-88
2022/01/10 02:46:24;;;;;;;25.45;9.60;;;;;;;;;;5076293;28;20040;-88
2022/01/10 02:48:54;;;;;;;24.35;10.20;;;;;;;;;;5094658;28;20044;-85
2022/01/10 02:51:20;;;;;;;29.58;10.10;;;;;;;;;;5074947;28;20124;-88
2022/01/10 02:53:46;;;;;;;19.98;8.85;;;;;;;;;;5073416;28;20036;-89
2022/01/10 02:56:12;;;;;;;29.50;10.93;;;;;;;;;;5071042;28;20086;-87
2022/01/10 02:58:38;;;;;;;21.23;9.80;;;;;;;;;;5094060;28;20046;-88
2022/01/10 03:01:05;;;;;;;28.33;9.95;;;;;;;;;;5055283;28;20131;-88
2022/01/10 03:03:31;;;;;;;25.38;10.98;;;;;;;;;;5055891;28;20098;-88
2022/01/10 03:05:58;;;;;;;25.33;9.50;;;;;;;;;;5055678;28;20527;-88
2022/01/10 03:08:25;;;;;;;22.00;9.68;;;;;;;;;;5058813;28;20392;-88
2022/01/10 03:10:51;;;;;;;27.33;10.13;;;;;;;;;;5094072;28;20040;-87
2022/01/10 03:13:17;;;;;;;22.77;9.48;;;;;;;;;;5076186;28;20044;-88
2022/01/10 03:15:43;;;;;;;22.40;11.25;;;;;;;;;;5075473;28;20468;-88
2022/01/10 03:18:09;;;;;;;26.70;10.57;;;;;;;;;;5072958;28;20078;-87
2022/01/10 03:20:36;;;;;;;22.90;9.32;;;;;;;;;;5072279;28;20079;-87
2022/01/10 03:23:02;;;;;;;22.75;9.35;;;;;;;;;;5068191;28;20200;-90
2022/01/10 03:25:28;;;;;;;25.85;8.85;;;;;;;;;;5058600;28;20048;-87
2022/01/10 03:27:54;;;;;;;25.70;9.10;;;;;;;;;;5093859;28;20047;-88
2022/01/10 03:30:20;;;;;;;23.13;9.10;;;;;;;;;;5073963;28;20182;-89
2022/01/10 03:32:48;;;;;;;25.52;10.48;;;;;;;;;;5076250;28;20130;-88
2022/01/10 03:35:14;;;;;;;27.05;10.43;;;;;;;;;;5074964;28;20047;-88
2022/01/10 03:37:40;;;;;;;26.85;11.07;;;;;;;;;;5093764;28;20072;-88
2022/01/10 03:40:07;;;;;;;25.27;10.65;;;;;;;;;;5075663;28;20040;-87
2022/01/10 03:42:33;;;;;;;29.95;10.15;;;;;;;;;;5075715;28;20048;-86
2022/01/10 03:44:59;;;;;;;31.25;12.60;;;;;;;;;;5071863;28;20033;-88
2022/01/10 03:47:28;;;;;;;28.58;12.35;;;;;;;;;;5059298;28;20040;-88
2022/01/10 03:49:54;;;;;;;25.30;10.88;;;;;;;;;;5074823;28;20135;-88
2022/01/10 03:52:20;;;;;;;22.75;10.23;;;;;;;;;;5073226;28;20540;-88
2022/01/10 03:54:46;;;;;;;23.17;10.80;;;;;;;;;;5071508;28;20104;-87
2022/01/10 03:57:12;;;;;;;27.10;11.45;;;;;;;;;;5069480;28;20093;-88
2022/01/10 03:59:38;;;;;;;30.73;11.65;;;;;;;;;;5071558;28;20139;-88
2022/01/10 04:02:04;;;;;;;23.20;10.50;;;;;;;;;;5067692;28;20515;-88
2022/01/10 04:04:32;;;;;;;21.83;9.70;;;;;;;;;;5054757;28;20090;-88
2022/01/10 04:06:58;;;;;;;24.17;10.30;;;;;;;;;;5067155;28;20093;-88
2022/01/10 04:09:24;;;;;;;26.98;10.50;;;;;;;;;;5074013;28;20131;-88
2022/01/10 04:11:51;;;;;;;26.73;11.93;;;;;;;;;;5071349;28;20315;-86
2022/01/10 04:14:20;;;;;;;27.85;13.18;;;;;;;;;;5071813;28;20044;-86
2022/01/10 04:16:46;;;;;;;26.65;12.93;;;;;;;;;;5070745;28;20576;-88
2022/01/10 04:19:12;;;;;;;27.30;12.65;;;;;;;;;;5055384;28;20040;-87
2022/01/10 04:21:38;;;;;;;23.27;10.80;;;;;;;;;;5074473;28;20039;-88
2022/01/10 04:24:04;;;;;;;23.65;11.60;;;;;;;;;;5071007;28;20127;-88
2022/01/10 04:26:30;;;;;;;21.00;11.25;;;;;;;;;;5054085;28;20044;-89
2022/01/10 04:28:56;;;;;;;25.65;13.40;;;;;;;;;;5054174;28;20463;-88
2022/01/10 04:31:22;;;;;;;27.23;15.55;;;;;;;;;;5071087;28;20044;-88
2022/01/10 04:33:48;;;;;;;32.63;16.00;;;;;;;;;;5074037;28;20046;-88
2022/01/10 04:36:14;;;;;;;32.03;14.93;;;;;;;;;;5072508;28;20044;-89
2022/01/10 04:38:42;;;;;;;30.48;14.30;;;;;;;;;;5091494;28;20111;-89
2022/01/10 04:41:08;;;;;;;27.25;13.90;;;;;;;;;;5071243;28;20055;-89
2022/01/10 04:43:35;;;;;;;26.38;13.23;;;;;;;;;;5070961;28;20515;-88
2022/01/10 04:46:02;;;;;;;28.00;14.30;;;;;;;;;;5066018;28;20139;-89
2022/01/10 04:48:28;;;;;;;26.08;13.38;;;;;;;;;;5076039;28;20058;-88
2022/01/10 04:51:11;;;;;;;26.17;13.88;;;;;;;;;;5091459;28;20090;-88
2022/01/10 04:53:38;;;;;;;23.10;14.27;;;;;;;;;;5063994;28;20040;-89
2022/01/10 04:56:05;;;;;;;23.40;12.52;;;;;;;;;;5074661;28;20416;-89
2022/01/10 04:58:31;;;;;;;22.58;11.77;;;;;;;;;;5074769;28;20037;-89
2022/01/10 05:00:57;;;;;;;23.60;13.15;;;;;;;;;;5061022;28;20472;-88
2022/01/10 05:03:23;;;;;;;23.05;11.57;;;;;;;;;;5061556;28;20040;-88
2022/01/10 05:05:58;;;;;;;28.55;13.40;;;;;;;;;;5077730;28;20044;-89
2022/01/10 05:08:24;;;;;;;24.27;12.35;;;;;;;;;;5077393;28;20049;-88
2022/01/10 05:10:54;;;;;;;30.17;14.77;;;;;;;;;;5074055;28;20558;-89
2022/01/10 05:13:20;;;;;;;91.78;19.95;;;;;;;;;;5074518;28;20040;-89
2022/01/10 05:15:47;;;;;;;109.10;21.58;;;;;;;;;;5074065;28;20072;-88
2022/01/10 05:18:14;;;;;;;93.53;18.58;;;;;;;;;;5058936;28;20041;-89
2022/01/10 05:20:40;;;;;;;101.13;18.13;;;;;;;;;;5074581;28;20076;-89
2022/01/10 05:23:06;;;;;;;123.20;17.30;;;;;;;;;;5070976;28;20076;-89
2022/01/10 05:25:36;;;;;;;116.55;18.38;;;;;;;;;;5074077;28;20052;-89
2022/01/10 05:28:04;;;;;;;91.75;17.98;;;;;;;;;;5067519;28;20040;-89
2022/01/10 05:30:35;;;;;;;74.60;17.35;;;;;;;;;;5053446;28;20075;-88
2022/01/10 05:33:13;;;;;;;68.30;17.05;;;;;;;;;;5057547;28;20047;-89
2022/01/10 05:35:44;;;;;;;77.15;16.20;;;;;;;;;;5037487;28;20041;-90
2022/01/10 05:38:11;;;;;;;48.97;15.00;;;;;;;;;;5046998;28;20040;-89
2022/01/10 05:40:39;;;;;;;65.97;16.20;;;;;;;;;;5095935;28;20062;-88
2022/01/10 05:43:05;;;;;;;71.93;18.02;;;;;;;;;;5073626;28;20051;-88
2022/01/10 05:45:31;;;;;;;89.35;22.23;;;;;;;;;;5048575;28;20071;-89
2022/01/10 05:48:10;;;;;;;72.15;23.15;;;;;;;;;;5052240;28;20123;-89
2022/01/10 05:51:05;;;;;;;86.07;23.10;;;;;;;;;;5053020;28;20052;-91
2022/01/10 05:53:32;;;;;;;104.47;21.23;;;;;;;;;;5058834;28;20131;-89
2022/01/10 05:56:03;;;;;;;117.63;26.42;;;;;;;;;;5040484;28;20044;-90
2022/01/10 05:58:52;;;;;;;98.15;24.55;;;;;;;;;;5064602;28;20047;-89
2022/01/10 06:01:28;;;;;;;140.32;30.55;;;;;;;;;;5067454;28;20048;-89
2022/01/10 06:04:09;;;;;;;114.18;27.02;;;;;;;;;;5085640;28;20048;-87
2022/01/10 06:06:41;;;;;;;103.25;24.42;;;;;;;;;;5074285;28;20032;-89
2022/01/10 06:09:13;;;;;;;84.72;22.38;;;;;;;;;;5074031;28;20036;-90
2022/01/10 06:18:11;;;;;;;200.00;35.67;;;;;;;;;;5074284;28;20070;-89
2022/01/10 06:20:59;;;;;;;160.50;32.65;;;;;;;;;;5096116;28;20119;-90
2022/01/10 06:23:55;;;;;;;144.50;31.95;;;;;;;;;;5020740;28;20041;-90
2022/01/10 06:26:54;;;;;;;208.35;38.95;;;;;;;;;;5015234;28;20053;-90
2022/01/10 06:30:03;;;;;;;152.55;38.05;;;;;;;;;;5003878;28;20139;-89
2022/01/10 06:32:51;;;;;;;168.73;34.88;;;;;;;;;;5044286;28;20044;-90
2022/01/10 06:38:42;;;;;;;142.57;31.30;;;;;;;;;;5075481;28;20059;-91
2022/01/10 06:41:40;;;;;;;148.25;34.55;;;;;;;;;;5036854;28;20037;-90
2022/01/10 06:44:20;;;;;;;131.13;34.88;;;;;;;;;;5060241;28;20042;-89
2022/01/10 06:46:57;;;;;;;159.63;38.72;;;;;;;;;;5061348;28;20078;-90
2022/01/10 06:50:12;;;;;;;;;;;;;;;;;;;;;
2022/01/10 06:53:41;;;;;;;;;;;;;;;;;;;;;
2022/01/10 07:00:19;;;;;;;;;;;;;;;;;;;;;
2022/01/10 07:02:39;;;;;;;127.47;37.63;;;;;;;;;;5110989;22;20505;-58
2022/01/10 07:05:05;;;;;;;163.90;46.47;;;-0.10;99.90;;;;;;5100850;28;20180;-58
2022/01/10 07:07:31;;;;;;;156.52;39.78;;;-0.20;99.90;;;;;;5113519;28;20086;-60
2022/01/10 07:09:57;;;;;;;166.68;48.95;;;;;;;;;;5112612;28;20040;-59
2022/01/10 07:12:23;;;;;;;145.77;36.92;;;;;;;;;;5113554;28;20510;-58
2022/01/10 07:14:49;;;;;;;118.45;36.58;;;;;;;;;;5113225;28;20039;-60
2022/01/10 07:17:15;;;;;;;84.05;33.03;;;;;;;;;;5112819;28;20034;-59
2022/01/10 07:19:41;;;;;;;105.18;37.85;;;;;;;;;;5112693;28;20035;-56
2022/01/10 07:22:07;;;;;;;79.10;30.45;;;;;;;;;;5107072;28;20509;-57
2022/01/10 07:24:33;;;;;;;103.95;36.15;;;;;;;;;;5104809;28;20043;-57
2022/01/10 07:26:59;;;;;;;92.80;31.60;;;-0.10;99.90;;;;;;5113326;28;20390;-59
2022/01/10 07:29:24;;;;;;;108.30;35.38;;;0.00;99.90;;;;;;5112988;28;20039;-60
2022/01/10 07:31:50;;;;;;;119.90;37.47;;;;;;;;;;5112731;28;20035;-60
2022/01/10 07:34:16;;;;;;;101.18;34.15;;;;;;;;;;5112949;28;20515;-60
2022/01/10 07:36:43;;;;;;;103.43;35.67;;;;;;;;;;5112734;28;20478;-57
2022/01/10 07:39:10;;;;;;;82.28;31.75;;;0.00;99.90;;;;;;5112900;28;20043;-60
2022/01/10 07:41:36;;;;;;;87.95;31.67;;;;;;;;;;5093475;28;20043;-58
2022/01/10 07:44:02;;;;;;;67.40;28.08;;;-0.10;99.90;;;;;;5075625;28;20078;-60
2022/01/10 07:46:28;;;;;;;90.53;36.85;;;;;;;;;;5111854;28;20463;-58
2022/01/10 07:48:55;;;;;;;108.47;37.47;;;;;;;;;;5093966;28;20032;-60
2022/01/10 07:51:22;;;;;;;119.97;37.15;;;;;;;;;;5112267;28;20115;-59
2022/01/10 07:53:48;;;;;;;100.22;34.10;;;;;;;;;;5094437;28;20092;-61
2022/01/10 07:56:14;;;;;;;134.93;39.88;;;;;;;;;;5112504;28;20091;-60
2022/01/10 07:58:40;;;;;;;136.40;43.53;;;;;;;;;;5094599;28;20452;-59
2022/01/10 08:01:06;;;;;;;118.45;38.25;;;;;;;;;;5112437;28;20052;-57
2022/01/10 08:03:32;;;;;;;146.48;43.63;;;;;;;;;;5111903;28;20350;-57
2022/01/10 08:05:59;;;;;;;108.45;38.60;;;;;;;;;;5111703;28;20044;-57
2022/01/10 08:08:25;;;;;;;178.80;51.88;;;;;;;;;;5112029;28;20043;-59
2022/01/10 08:10:50;;;;;;;120.30;41.25;;;0.00;99.90;;;;;;5112094;28;20035;-60
2022/01/10 08:13:16;;;;;;;108.75;37.30;;;;;;;;;;5112460;28;20039;-59
2022/01/10 08:15:43;;;;;;;109.22;35.47;;;;;;;;;;5093797;28;20123;-60
2022/01/10 08:18:10;;;;;;;225.35;57.58;;;;;;;;;;5111619;28;20120;-59
2022/01/10 08:20:36;;;;;;;246.30;61.30;;;;;;;;;;5111849;28;20059;-59
2022/01/10 08:23:02;;;;;;;256.90;55.50;;;;;;;;;;5111568;28;20045;-59
2022/01/10 08:25:27;;;;;;;141.05;49.03;;;;;;;;;;5093375;28;20039;-59
2022/01/10 08:27:53;;;;;;;165.48;50.63;;;0.10;99.90;;;;;;5111967;28;20035;-57
2022/01/10 08:30:19;;;;;;;157.30;50.17;;;;;;;;;;5111228;28;20079;-57
2022/01/10 08:32:50;;;;;;;102.60;40.53;;;0.20;99.90;;;;;;5110125;28;20032;-59
2022/01/10 08:35:16;;;;;;;109.85;43.05;;;0.20;99.90;;;;;;5107265;28;20127;-57
2022/01/10 08:37:42;;;;;;;180.05;50.17;;;0.00;99.90;;;;;;5099396;28;20036;-57
2022/01/10 08:40:08;;;;;;;172.20;54.47;;;;;;;;;;5108860;28;20109;-58
2022/01/10 08:42:34;;;;;;;124.47;44.05;;;;;;;;;;5111480;28;20393;-57
2022/01/10 08:45:00;;;;;;;164.55;50.85;;;;;;;;;;5111616;28;20077;-61
2022/01/10 08:47:27;;;;;;;144.95;47.70;;;0.20;99.90;;;;;;5111282;28;20040;-57
2022/01/10 08:49:53;;;;;;;159.75;52.00;;;0.20;99.90;;;;;;5093664;28;20043;-57
2022/01/10 08:52:18;;;;;;;169.20;51.33;;;0.30;99.90;;;;;;5111408;28;20446;-56
2022/01/10 08:54:45;;;;;;;131.13;43.13;;;0.30;99.90;;;;;;5110887;28;20036;-58
2022/01/10 08:57:11;;;;;;;208.77;57.28;;;0.20;99.90;;;;;;5111649;28;20383;-58
2022/01/10 08:59:37;;;;;;;156.93;52.75;;;;;;;;;;5111437;28;20047;-56
2022/01/10 09:02:03;;;;;;;121.30;44.47;;;;;;;;;;5086988;28;20050;-59
2022/01/10 09:04:29;;;;;;;78.65;37.53;;;;;;;;;;5102362;28;20036;-59
2022/01/10 09:06:55;;;;;;;72.32;36.22;;;;;;;;;;5111029;28;20032;-58
2022/01/10 09:09:22;;;;;;;64.95;33.05;;;;;;;;;;5111590;28;20036;-59
2022/01/10 09:11:49;;;;;;;81.28;37.35;;;;;;;;;;5111465;28;20062;-58
2022/01/10 09:14:15;;;;;;;87.57;41.97;;;;;;;;;;5111432;28;20036;-57
2022/01/10 09:16:42;;;;;;;73.85;35.85;;;;;;;;;;5111590;28;20046;-57
2022/01/10 09:19:08;;;;;;;87.13;37.85;;;;;;;;;;5111101;28;20134;-60
2022/01/10 09:21:34;;;;;;;75.20;36.15;;;0.30;99.90;;;;;;5111693;28;20086;-57
2022/01/10 09:24:01;;;;;;;78.90;38.75;;;0.40;99.90;;;;;;5111562;28;20122;-58
2022/01/10 09:26:27;;;;;;;70.75;37.83;;;0.30;99.90;;;;;;5111320;28;20051;-57
2022/01/10 09:28:53;;;;;;;90.03;43.25;;;0.40;99.90;;;;;;5111043;28;20040;-57
2022/01/10 09:31:22;;;;;;;77.38;37.03;;;0.50;99.90;;;;;;5112239;28;20416;-57
2022/01/10 09:33:53;;;;;;;69.25;36.20;;;0.60;99.90;;;;;;5094083;28;20478;-58
2022/01/10 09:36:20;;;;;;;79.75;41.10;;;0.20;99.90;;;;;;5114921;28;20088;-60
2022/01/10 09:38:45;;;;;;;73.47;38.42;;;0.40;99.90;;;;;;5114730;28;20382;-59
2022/01/10 09:41:11;;;;;;;73.28;39.85;;;;;;;;;;5114461;28;20039;-59
2022/01/10 09:44:07;;;;;;;83.40;44.35;;;;;;;;;;5113482;28;20181;-58
2022/01/10 09:46:33;;;;;;;95.07;46.55;;;;;;;;;;5084260;28;20092;-60
2022/01/10 09:49:01;;;;;;;95.18;45.15;;;;;;;;;;5114420;28;20081;-57
2022/01/10 09:51:28;;;;;;;80.55;42.10;;;;;;;;;;5107956;28;20044;-60
2022/01/10 09:53:55;;;;;;;97.57;48.92;;;0.50;99.90;;;;;;5096771;28;20413;-57
2022/01/10 09:56:21;;;;;;;97.82;46.63;;;;;;;;;;5080186;28;20031;-59
2022/01/10 09:58:47;;;;;;;81.05;42.47;;;0.90;99.90;;;;;;5079762;28;20494;-57
2022/01/10 10:01:14;;;;;;;87.25;45.42;;;;;;;;;;5093221;28;20028;-60
2022/01/10 10:03:43;;;;;;;72.80;37.97;;;;;;;;;;5078675;28;20036;-59
2022/01/10 10:06:09;;;;;;;86.15;44.45;;;;;;;;;;5097219;28;20075;-57
2022/01/10 10:08:38;;;;;;;82.85;42.50;;;;;;;;;;5095219;28;20047;-58
2022/01/10 10:11:06;;;;;;;88.95;43.85;;;0.70;99.90;;;;;;5082225;28;20489;-58
2022/01/10 10:13:36;;;;;;;92.30;48.92;;;;;;;;;;5101671;28;20122;-56
2022/01/10 10:16:04;;;;;;;79.90;40.78;;;1.00;99.90;;;;;;5113030;28;20028;-60
2022/01/10 10:18:30;;;;;;;79.13;40.80;;;;;;;;;;5112981;28;20119;-60
2022/01/10 10:20:56;;;;;;;71.50;39.53;;;;;;;;;;5103804;28;20047;-57
2022/01/10 10:23:23;;;;;;;67.38;39.28;;;;;;;;;;5104148;28;20454;-60
2022/01/10 10:25:50;;;;;;;75.57;43.85;;;;;;;;;;5112514;28;20119;-58
2022/01/10 10:28:16;;;;;;;73.50;43.80;;;;;;;;;;5107422;27;20071;-58
2022/01/10 10:30:41;;;;;;;77.15;43.50;;;1.70;99.90;;;;;;5103159;28;20397;-57
2022/01/10 10:33:19;;;;;;;77.63;42.67;;;;;;;;;;5111081;28;20036;-59
2022/01/10 10:35:45;;;;;;;86.07;48.67;;;;;;;;;;5113462;28;20043;-55
2022/01/10 10:38:11;;;;;;;73.47;41.90;;;;;;;;;;5095778;28;20036;-57
2022/01/10 10:40:42;;;;;;;77.82;43.10;;;;;;;;;;5113464;28;20051;-59
2022/01/10 10:43:09;;;;;;;80.88;43.38;;;1.80;99.90;;;;;;5113855;28;20089;-58
2022/01/10 10:45:35;;;;;;;86.13;45.75;;;2.10;99.90;;;;;;5111229;28;20039;-56
2022/01/10 10:48:07;;;;;;;80.13;44.85;;;1.70;99.90;;;;;;5113756;28;20183;-57
2022/01/10 10:50:45;;;;;;;82.32;45.55;;;2.50;99.90;;;;;;5095079;28;20047;-56
2022/01/10 10:53:13;;;;;;;82.80;45.67;;;2.30;99.90;;;;;;5113804;28;20035;-56
2022/01/10 10:55:40;;;;;;;85.30;46.40;;;;;;;;;;5112940;28;20382;-56
2022/01/10 10:58:07;;;;;;;89.75;46.70;;;2.80;99.90;;;;;;5113311;28;20079;-57
2022/01/10 11:00:35;;;;;;;74.78;43.75;;;;;;;;;;5113143;28;20118;-56
2022/01/10 11:03:01;;;;;;;71.90;44.28;;;;;;;;;;5113174;28;20632;-59
2022/01/10 11:05:29;;;;;;;83.47;44.53;;;;;;;;;;5113129;28;20051;-56
2022/01/10 11:07:55;;;;;;;79.15;46.05;;;;;;;;;;5112595;28;20039;-57
2022/01/10 11:10:23;;;;;;;82.50;47.22;;;;;;;;;;5113079;28;20085;-57
2022/01/10 11:12:54;;;;;;;79.57;46.00;;;3.10;99.90;;;;;;5112657;28;20074;-57
2022/01/10 11:15:20;;;;;;;80.32;47.58;;;;;;;;;;5113353;28;20035;-57
2022/01/10 11:17:46;;;;;;;75.18;46.38;;;;;;;;;;5112936;28;20455;-57
2022/01/10 11:20:17;;;;;;;77.38;46.72;;;;;;;;;;5113352;28;20039;-57
2022/01/10 11:22:50;;;;;;;79.53;43.92;;;3.10;99.90;;;;;;5112473;28;20039;-56
2022/01/10 11:25:35;;;;;;;81.28;47.33;;;;;;;;;;5112250;28;20043;-56
2022/01/10 11:28:06;;;;;;;79.43;44.33;;;3.00;99.90;;;;;;5111771;28;20065;-58
2022/01/10 11:30:36;;;;;;;80.13;46.05;;;;;;;;;;5103444;28;20036;-56
2022/01/10 11:33:11;;;;;;;71.38;43.63;;;3.70;99.90;;;;;;5092610;28;20040;-55
2022/01/10 11:35:52;;;;;;;73.60;44.75;;;3.60;99.90;;;;;;5091659;28;20393;-56
2022/01/10 11:38:18;;;;;;;78.18;42.92;;;;;;;;;;5092172;28;20429;-59
2022/01/10 11:40:44;;;;;;;65.43;39.83;;;;;;;;;;5092245;28;20065;-59
2022/01/10 11:43:26;;;;;;;66.85;41.95;;;;;;;;;;5092009;28;20421;-56
2022/01/10 11:46:09;;;;;;;69.55;41.95;;;4.00;99.90;;;;;;5091283;28;20044;-58
2022/01/10 11:48:45;;;;;;;69.53;42.65;;;;;;;;;;5092001;28;20093;-58
2022/01/10 11:51:13;;;;;;;64.55;40.22;;;;;;;;;;5091936;28;20075;-59
2022/01/10 11:53:43;;;;;;;61.63;38.05;;;;;;;;;;5092129;28;20091;-57
2022/01/10 11:56:30;;;;;;;62.33;39.13;;;4.50;99.90;;;;;;5091858;28;20062;-58
2022/01/10 11:59:08;;;;;;;66.28;39.97;;;;;;;;;;5091476;28;20040;-58
2022/01/10 12:01:35;;;;;;;59.35;38.75;;;4.40;99.90;;;;;;5103081;28;20104;-59
2022/01/10 12:04:02;;;;;;;68.40;41.35;;;;;;;;;;5106200;28;20036;-57
2022/01/10 12:06:28;;;;;;;56.25;35.92;;;;;;;;;;5111483;28;20508;-57
2022/01/10 12:08:55;;;;;;;56.65;36.25;;;;;;;;;;5102218;28;20043;-59
2022/01/10 12:11:26;;;;;;;57.15;36.35;;;;;;;;;;5095786;22;20048;-65
2022/01/10 12:13:53;;;;;;;65.95;40.15;;;;;;;;;;5076700;28;20503;-64
2022/01/10 12:16:20;;;;;;;56.88;37.72;;;;;;;;;;5059556;28;20060;-64
2022/01/10 12:18:46;;;;;;;54.08;35.67;;;;;;;;;;5070488;28;20086;-65
2022/01/10 12:21:13;;;;;;;56.63;35.67;;;;;;;;;;5069381;28;20076;-65
2022/01/10 12:23:40;;;;;;;53.75;35.67;;;5.60;99.90;;;;;;5070976;28;20123;-63
2022/01/10 12:26:06;;;;;;;54.05;33.22;;;;;;;;;;5070314;28;20044;-63
2022/01/10 12:28:32;;;;;;;50.00;32.42;;;;;;;;;;5070344;28;20036;-64
2022/01/10 12:31:02;;;;;;;49.63;31.75;;;;;;;;;;5052228;28;20147;-64
2022/01/10 12:33:28;;;;;;;48.00;33.25;;;6.10;99.90;;;;;;5052841;28;20045;-64
2022/01/10 12:35:54;;;;;;;48.95;33.10;;;;;;;;;;5069741;28;20351;-64
2022/01/10 12:38:21;;;;;;;50.63;34.03;;;;;;;;;;5070601;28;20037;-64
2022/01/10 12:40:49;;;;;;;42.05;30.23;;;6.10;99.90;;;;;;5070336;28;20127;-63
2022/01/10 12:43:15;;;;;;;45.50;27.35;;;6.80;99.90;;;;;;5070342;28;20518;-63
2022/01/10 12:45:41;;;;;;;42.30;27.58;;;6.80;99.90;;;;;;5069542;28;20067;-64
2022/01/10 12:48:14;;;;;;;36.60;24.40;;;;;;;;;;5052748;28;20529;-64
2022/01/10 12:50:41;;;;;;;38.30;21.30;;;7.10;99.90;;;;;;5070662;28;20040;-64
2022/01/10 12:53:07;;;;;;;30.05;19.13;;;;;;;;;;5070073;28;20045;-64
2022/01/10 12:55:33;;;;;;;33.05;19.63;;;;;;;;;;5069579;28;20036;-64
2022/01/10 12:57:59;;;;;;;33.08;20.27;;;;;;;;;;5070108;28;20081;-64
2022/01/10 13:00:26;;;;;;;31.05;19.38;;;;;;;;;;5070278;28;20098;-64
2022/01/10 13:02:51;;;;;;;33.17;19.38;;;8.90;99.90;;;;;;5069984;28;20040;-64
2022/01/10 13:05:18;;;;;;;24.75;16.98;;;;;;;;;;5072169;28;20032;-64
2022/01/10 13:07:46;;;;;;;29.40;17.00;;;9.20;99.90;;;;;;5074727;28;20038;-64
2022/01/10 13:10:21;;;;;;;26.27;18.10;;;9.40;99.90;;;;;;5084334;28;20506;-63
2022/01/10 13:12:49;;;;;;;33.33;20.73;;;10.20;99.90;;;;;;5087947;28;20052;-64
2022/01/10 13:15:17;;;;;;;29.13;20.30;;;10.00;99.90;;;;;;5092046;28;20498;-64
2022/01/10 13:18:00;;;;;;;27.73;18.40;;;9.80;99.90;;;;;;5094429;28;20131;-64
2022/01/10 13:20:30;;;;;;;28.15;19.73;;;10.40;99.90;;;;;;5094166;28;20061;-64
2022/01/10 13:23:16;;;;;;;32.63;18.15;;;9.80;99.90;;;;;;5093855;28;20150;-64
2022/01/10 13:25:49;;;;;;;26.10;18.63;;;10.00;99.90;;;;;;5075802;28;20089;-64
2022/01/10 13:28:15;;;;;;;26.45;17.98;;;10.60;99.90;;;;;;5094005;28;20036;-65
2022/01/10 13:30:52;;;;;;;25.75;17.02;;;10.80;99.90;;;;;;5075680;28;20077;-64
2022/01/10 13:33:21;;;;;;;25.10;16.38;;;11.00;99.90;;;;;;5093879;28;20501;-64
2022/01/10 13:35:57;;;;;;;24.17;17.00;;;11.10;99.90;;;;;;5093218;28;20043;-64
2022/01/10 13:38:27;;;;;;;21.48;16.27;;;11.30;99.90;;;;;;5094251;28;20036;-64
2022/01/10 13:40:55;;;;;;;20.65;14.32;;;12.50;99.90;;;;;;5093473;28;20074;-64
2022/01/10 13:43:29;;;;;;;20.63;13.68;;;12.90;99.90;;;;;;5093902;28;20040;-63
2022/01/10 13:46:00;;;;;;;25.23;13.75;;;12.00;90.50;;;;;;5092780;28;20058;-64
2022/01/10 13:48:34;;;;;;;21.42;14.30;;;11.90;96.30;;;;;;5093601;28;20611;-64
2022/01/10 13:51:03;;;;;;;17.55;13.48;;;11.70;99.60;;;;;;5093836;28;20036;-65
2022/01/10 13:53:30;;;;;;;18.98;14.55;;;12.00;99.90;;;;;;5093378;28;20166;-64
2022/01/10 13:56:27;;;;;;;22.35;15.57;;;12.00;93.50;;;;;;5092935;28;20047;-64
2022/01/10 13:58:57;;;;;;;19.92;13.23;;;12.30;93.30;;;;;;5093427;28;20517;-64
2022/01/10 14:01:28;;;;;;;20.27;13.52;;;12.60;94.00;;;;;;5093326;28;20051;-64
2022/01/10 14:03:56;;;;;;;17.70;13.38;;;12.70;95.40;;;;;;5093609;28;20055;-63
2022/01/10 14:06:32;;;;;;;22.08;13.95;;;11.90;92.70;;;;;;5075096;28;20468;-64
2022/01/10 14:09:03;;;;;;;18.65;13.57;;;12.30;91.50;;;;;;5092961;28;20083;-64
2022/01/10 14:11:31;;;;;;;22.92;14.40;;;11.50;92.60;;;;;;5093280;28;20043;-64
2022/01/10 14:14:03;;;;;;;19.35;13.98;;;11.40;93.70;;;;;;5093245;28;20036;-64
2022/01/10 14:16:36;;;;;;;19.42;14.27;;;11.30;91.30;;;;;;5092456;28;20040;-64
2022/01/10 14:19:04;;;;;;;21.23;13.98;;;11.50;93.00;;;;;;5091986;28;20498;-65
2022/01/10 14:21:29;;;;;;;20.95;14.90;;;10.60;93.70;;;;;;5084602;28;20033;-65
2022/01/10 14:23:55;;;;;;;20.80;14.32;;;10.50;93.00;;;;;;5092796;28;20051;-65